Time;durP1;ratioP1;P1;durP2;ratioP2;P2;SDS_P1;SDS_P2;PMS_P1;PMS_P2;Temp;Humidity;BMP_temperature;BMP_pressure;BME280_temperature;BME280_humidity;BME280_pressure;Samples;Min_cycle;Max_cycle;Signal;HPM_P1;HPM_P2
2022/03/11 00:01:07;;;;;;;68.37;37.93;;;;;;;;;;5125159;27;20065;-49
2022/03/11 00:03:33;;;;;;;59.90;36.72;;;;;;;;;;5125929;27;20023;-53
2022/03/11 00:05:59;;;;;;;62.65;37.72;;;;;;;;;;5130318;27;20057;-48
2022/03/11 00:08:26;;;;;;;64.77;36.43;;;;;;;;;;5120669;27;20028;-52
2022/03/11 00:10:52;;;;;;;58.17;35.30;;;;;;;;;;5121499;27;20055;-48
2022/03/11 00:13:18;;;;;;;60.83;37.17;;;;;;;;;;5132408;27;20074;-48
2022/03/11 00:15:44;;;;;;;57.47;35.63;;;;;;;;;;5113204;27;20027;-52
2022/03/11 00:18:10;;;;;;;57.05;35.13;;;;;;;;;;5134947;27;20376;-53
2022/03/11 00:20:36;;;;;;;63.97;38.63;;;;;;;;;;5124309;27;20040;-48
2022/03/11 00:23:03;;;;;;;63.27;36.63;;;;;;;;;;5131757;27;20027;-48
2022/03/11 00:25:31;;;;;;;61.00;37.63;;;;;;;;;;5133880;27;20034;-48
2022/03/11 00:27:59;;;;;;;63.37;35.97;;;;;;;;;;5110743;27;20045;-49
2022/03/11 00:30:25;;;;;;;61.60;36.07;;;;;;;;;;5128440;27;20130;-48
2022/03/11 00:32:51;;;;;;;60.47;35.53;;;;;;;;;;5132920;27;20039;-48
2022/03/11 00:35:17;;;;;;;66.03;37.60;;;;;;;;;;5132978;27;20027;-48
2022/03/11 00:37:43;;;;;;;65.20;36.60;;;;;;;;;;5123386;27;20027;-51
2022/03/11 00:40:12;;;;;;;61.77;37.13;;;;;;;;;;5135325;27;20076;-49
2022/03/11 00:42:38;;;;;;;59.70;36.43;;;;;;;;;;5128839;27;20023;-48
2022/03/11 00:45:04;;;;;;;55.93;35.33;;;;;;;;;;5140721;27;20023;-48
2022/03/11 00:47:30;;;;;;;60.03;35.33;;;;;;;;;;5131679;27;20061;-50
2022/03/11 00:49:56;;;;;;;63.63;37.10;;;;;;;;;;5142830;27;20042;-49
2022/03/11 00:52:22;;;;;;;62.20;37.73;;;;;;;;;;5139608;27;20046;-48
2022/03/11 00:54:48;;;;;;;59.77;36.07;;;;;;;;;;5133848;27;20031;-48
2022/03/11 00:57:16;;;;;;;67.13;38.20;;;;;;;;;;5134129;27;20039;-51
2022/03/11 00:59:42;;;;;;;67.37;38.47;;;;;;;;;;5133758;27;20023;-47
2022/03/11 01:02:08;;;;;;;56.93;34.63;;;;;;;;;;5120482;27;20416;-47
2022/03/11 01:04:34;;;;;;;62.53;36.50;;;;;;;;;;5135246;27;20083;-48
2022/03/11 01:07:00;;;;;;;68.20;36.47;;;;;;;;;;5131658;27;20035;-47
2022/03/11 01:09:26;;;;;;;58.33;36.07;;;;;;;;;;5134978;27;20053;-47
2022/03/11 01:11:52;;;;;;;60.00;36.70;;;;;;;;;;5135141;27;20054;-49
2022/03/11 01:14:18;;;;;;;55.63;35.20;;;;;;;;;;5134892;27;20023;-47
2022/03/11 01:16:44;;;;;;;56.43;34.03;;;;;;;;;;5134978;27;20051;-49
2022/03/11 01:19:10;;;;;;;65.80;36.27;;;;;;;;;;5134761;27;20035;-48
2022/03/11 01:21:36;;;;;;;60.37;34.83;;;;;;;;;;5130716;27;20023;-49
2022/03/11 01:24:02;;;;;;;62.80;35.97;;;;;;;;;;5134695;27;20050;-48
2022/03/11 01:26:29;;;;;;;57.20;35.60;;;;;;;;;;5134774;27;20019;-48
2022/03/11 01:28:55;;;;;;;59.53;35.37;;;;;;;;;;5135139;27;20129;-49
2022/03/11 01:31:21;;;;;;;59.00;35.73;;;;;;;;;;5134786;27;20027;-47
2022/03/11 01:33:47;;;;;;;58.23;35.10;;;;;;;;;;5131277;27;20536;-52
2022/03/11 01:36:14;;;;;;;59.53;35.03;;;;;;;;;;5130635;27;20019;-48
2022/03/11 01:38:40;;;;;;;56.80;34.73;;;;;;;;;;5131003;27;20027;-48
2022/03/11 01:41:09;;;;;;;62.47;36.07;;;;;;;;;;5130114;27;20022;-48
2022/03/11 01:43:51;;;;;;;63.70;35.53;;;;;;;;;;5126077;27;20016;-49
2022/03/11 01:46:17;;;;;;;54.77;32.80;;;;;;;;;;5130463;27;20505;-48
2022/03/11 01:48:43;;;;;;;55.90;33.87;;;;;;;;;;5121676;27;20034;-49
2022/03/11 02:03:37;;;;;;;54.57;34.53;;;;;;;;;;5124170;27;20054;-48
2022/03/11 02:06:04;;;;;;;56.30;34.20;;;;;;;;;;5127160;27;20476;-48
2022/03/11 02:08:30;;;;;;;54.53;32.87;;;;;;;;;;5134228;27;20024;-47
2022/03/11 02:10:57;;;;;;;57.53;33.90;;;;;;;;;;5127175;27;20028;-47
2022/03/11 02:13:23;;;;;;;59.17;34.20;;;;;;;;;;5132759;27;20118;-53
2022/03/11 02:15:49;;;;;;;57.00;33.27;;;;;;;;;;5126851;27;20051;-48
2022/03/11 02:18:15;;;;;;;56.67;33.03;;;;;;;;;;5127240;27;20382;-47
2022/03/11 02:20:41;;;;;;;56.83;33.37;;;;;;;;;;5126133;27;20031;-48
2022/03/11 02:23:12;;;;;;;58.07;34.00;;;;;;;;;;5120471;27;20047;-50
2022/03/11 02:25:40;;;;;;;51.27;31.93;;;;;;;;;;5129311;27;20025;-47
2022/03/11 02:30:50;;;;;;;52.50;31.73;;;;;;;;;;5129122;27;20035;-52
2022/03/11 02:33:16;;;;;;;54.20;32.87;;;;;;;;;;5128149;27;20043;-49
2022/03/11 02:35:42;;;;;;;54.73;33.47;;;;;;;;;;5121385;27;20034;-47
2022/03/11 02:38:08;;;;;;;52.47;31.47;;;;;;;;;;5124421;27;20032;-47
2022/03/11 02:40:59;;;;;;;51.93;31.17;;;;;;;;;;5125446;27;20049;-50
2022/03/11 02:43:26;;;;;;;54.17;32.77;;;;;;;;;;5116455;27;20065;-47
2022/03/11 02:45:52;;;;;;;52.97;31.93;;;;;;;;;;5121515;27;20480;-47
2022/03/11 02:48:18;;;;;;;46.13;30.53;;;;;;;;;;5119771;27;20031;-47
2022/03/11 02:50:44;;;;;;;52.73;31.23;;;;;;;;;;5106654;27;20063;-48
2022/03/11 02:53:10;;;;;;;52.40;31.77;;;;;;;;;;5130200;27;20058;-47
2022/03/11 02:55:36;;;;;;;49.33;30.57;;;;;;;;;;5128164;27;20019;-47
2022/03/11 02:58:02;;;;;;;45.30;28.47;;;;;;;;;;5132523;27;20023;-52
2022/03/11 03:00:29;;;;;;;52.03;31.23;;;;;;;;;;5120449;27;20089;-47
2022/03/11 03:02:55;;;;;;;53.50;30.27;;;;;;;;;;5117861;27;20038;-49
2022/03/11 03:05:21;;;;;;;55.27;30.70;;;;;;;;;;5119941;27;20023;-48
2022/03/11 03:07:47;;;;;;;50.47;30.93;;;;;;;;;;5133151;27;20191;-47
2022/03/11 03:10:13;;;;;;;46.70;28.73;;;;;;;;;;5126927;27;20487;-51
2022/03/11 03:12:39;;;;;;;48.10;30.07;;;;;;;;;;5117834;27;20133;-53
2022/03/11 03:15:06;;;;;;;49.43;29.17;;;;;;;;;;5123044;27;20158;-48
2022/03/11 03:17:32;;;;;;;48.20;30.07;;;;;;;;;;5129162;27;20027;-48
2022/03/11 03:19:58;;;;;;;49.77;29.33;;;;;;;;;;5125724;27;20020;-53
2022/03/11 03:22:24;;;;;;;52.30;31.20;;;;;;;;;;5119321;27;20034;-47
2022/03/11 03:24:50;;;;;;;47.17;29.90;;;;;;;;;;5122629;27;20072;-52
2022/03/11 03:27:16;;;;;;;48.40;29.90;;;;;;;;;;5129153;27;20172;-49
2022/03/11 03:29:42;;;;;;;51.53;28.90;;;;;;;;;;5128111;27;20035;-47
2022/03/11 03:32:09;;;;;;;48.00;29.73;;;;;;;;;;5126612;28;20078;-47
2022/03/11 03:34:36;;;;;;;45.97;29.57;;;;;;;;;;5121258;28;20019;-47
2022/03/11 03:37:04;;;;;;;51.40;30.60;;;;;;;;;;5125625;28;20031;-49
2022/03/11 03:39:30;;;;;;;50.63;31.53;;;;;;;;;;5127086;28;20023;-49
2022/03/11 03:41:57;;;;;;;49.60;29.30;;;;;;;;;;5105148;28;20020;-47
2022/03/11 03:44:23;;;;;;;45.60;29.00;;;;;;;;;;5131299;27;20039;-48
2022/03/11 03:46:49;;;;;;;48.97;30.40;;;;;;;;;;5130083;28;20072;-48
2022/03/11 03:49:15;;;;;;;48.93;29.57;;;;;;;;;;5132333;28;20030;-49
2022/03/11 03:51:41;;;;;;;48.40;27.80;;;;;;;;;;5108730;28;20042;-46
2022/03/11 03:54:11;;;;;;;49.53;29.97;;;;;;;;;;5110323;28;20034;-46
2022/03/11 03:56:38;;;;;;;51.57;29.23;;;;;;;;;;5126719;28;20024;-49
2022/03/11 03:59:07;;;;;;;47.13;27.63;;;;;;;;;;5132771;28;20372;-49
2022/03/11 04:01:34;;;;;;;47.07;28.80;;;;;;;;;;5124089;28;20027;-49
2022/03/11 04:04:00;;;;;;;45.30;27.33;;;;;;;;;;5124656;28;20027;-49
2022/03/11 04:06:28;;;;;;;49.03;28.70;;;;;;;;;;5123829;28;20164;-53
2022/03/11 04:08:56;;;;;;;48.00;28.80;;;;;;;;;;5127621;28;20488;-48
2022/03/11 04:11:22;;;;;;;47.87;29.17;;;;;;;;;;5122513;28;20122;-51
2022/03/11 04:13:49;;;;;;;50.63;29.60;;;;;;;;;;5126225;28;20472;-48
2022/03/11 04:16:15;;;;;;;43.43;28.20;;;;;;;;;;5133893;27;20376;-47
2022/03/11 04:18:41;;;;;;;44.37;26.90;;;;;;;;;;5125418;27;20032;-47
2022/03/11 04:21:07;;;;;;;47.60;26.33;;;;;;;;;;5113908;28;20035;-47
2022/03/11 04:23:33;;;;;;;45.17;28.53;;;;;;;;;;5110218;28;20463;-52
2022/03/11 04:29:04;;;;;;;44.60;28.37;;;;;;;;;;5131659;27;20115;-50
2022/03/11 04:31:30;;;;;;;47.23;27.60;;;;;;;;;;5133380;27;20468;-47
2022/03/11 04:33:57;;;;;;;41.87;25.90;;;;;;;;;;5134328;27;20034;-47
2022/03/11 04:36:23;;;;;;;41.50;25.93;;;;;;;;;;5126681;27;20110;-50
2022/03/11 04:38:49;;;;;;;43.27;26.23;;;;;;;;;;5130730;27;20065;-48
2022/03/11 04:41:15;;;;;;;43.37;27.00;;;;;;;;;;5131614;27;20050;-47
2022/03/11 04:43:42;;;;;;;45.97;27.20;;;;;;;;;;5124043;27;20058;-48
2022/03/11 04:46:08;;;;;;;39.60;24.07;;;;;;;;;;5119580;27;20020;-49
2022/03/11 04:48:36;;;;;;;43.23;25.67;;;;;;;;;;5127790;27;20027;-49
2022/03/11 04:51:03;;;;;;;43.60;26.30;;;;;;;;;;5104308;28;20031;-49
2022/03/11 04:53:29;;;;;;;42.37;25.03;;;;;;;;;;5122101;27;20071;-48
2022/03/11 04:55:55;;;;;;;42.17;25.43;;;;;;;;;;5123897;27;20144;-48
2022/03/11 04:58:21;;;;;;;40.47;24.47;;;;;;;;;;5115952;27;20027;-48
2022/03/11 05:00:47;;;;;;;36.17;24.17;;;;;;;;;;5123420;27;20047;-52
2022/03/11 05:03:13;;;;;;;39.00;24.23;;;;;;;;;;5123763;27;20031;-49
2022/03/11 05:05:39;;;;;;;42.73;24.30;;;;;;;;;;5109231;28;20028;-49
2022/03/11 05:08:05;;;;;;;36.97;22.70;;;;;;;;;;5122299;27;20361;-51
2022/03/11 05:10:32;;;;;;;36.70;22.77;;;;;;;;;;5133208;27;20023;-48
2022/03/11 05:12:58;;;;;;;35.80;22.40;;;;;;;;;;5132705;27;20462;-52
2022/03/11 05:15:49;;;;;;;35.13;21.40;;;;;;;;;;5133718;27;20368;-47
2022/03/11 05:18:15;;;;;;;32.47;21.20;;;;;;;;;;5130799;27;20626;-49
2022/03/11 05:20:41;;;;;;;36.93;22.83;;;;;;;;;;5119334;27;20111;-49
2022/03/11 05:23:07;;;;;;;33.90;21.40;;;;;;;;;;5138045;27;20054;-48
2022/03/11 05:25:33;;;;;;;33.93;21.13;;;;;;;;;;5119505;27;20023;-47
2022/03/11 05:27:59;;;;;;;34.60;22.13;;;;;;;;;;5114749;27;20049;-47
2022/03/11 05:30:25;;;;;;;34.43;22.00;;;;;;;;;;5125024;27;20464;-48
2022/03/11 05:32:51;;;;;;;33.17;21.93;;;;;;;;;;5124822;27;20074;-48
2022/03/11 05:35:17;;;;;;;32.90;20.43;;;;;;;;;;5117105;27;20186;-48
2022/03/11 05:37:43;;;;;;;39.43;21.43;;;;;;;;;;5104382;28;20024;-47
2022/03/11 05:40:10;;;;;;;33.00;20.63;;;;;;;;;;5107416;27;20793;-48
2022/03/11 05:42:36;;;;;;;31.83;20.73;;;;;;;;;;5127033;27;20031;-50
2022/03/11 05:45:03;;;;;;;30.57;21.13;;;;;;;;;;5127385;27;20473;-48
2022/03/11 05:47:29;;;;;;;32.60;20.90;;;;;;;;;;5119467;27;20164;-47
2022/03/11 05:49:55;;;;;;;30.47;20.30;;;;;;;;;;5132125;27;20015;-48
2022/03/11 05:52:22;;;;;;;32.93;20.97;;;;;;;;;;5131507;27;20041;-54
2022/03/11 05:54:48;;;;;;;31.87;20.13;;;;;;;;;;5115148;27;20031;-52
2022/03/11 05:57:14;;;;;;;34.50;20.33;;;;;;;;;;5121840;27;20076;-48
2022/03/11 05:59:40;;;;;;;33.30;20.13;;;;;;;;;;5129489;27;20019;-48
2022/03/11 06:02:06;;;;;;;29.07;19.10;;;;;;;;;;5118044;27;20375;-48
2022/03/11 06:04:32;;;;;;;32.33;19.93;;;;;;;;;;5127043;27;20031;-51
2022/03/11 06:06:58;;;;;;;29.80;19.80;;;;;;;;;;5127699;27;20029;-48
2022/03/11 06:09:24;;;;;;;30.70;18.27;;;;;;;;;;5125313;27;20126;-48
2022/03/11 06:11:53;;;;;;;33.60;20.67;;;;;;;;;;5122468;27;20505;-47
2022/03/11 06:14:19;;;;;;;31.20;18.90;;;;;;;;;;5118836;27;20035;-48
2022/03/11 06:16:45;;;;;;;29.50;18.60;;;;;;;;;;5116636;27;20061;-48
2022/03/11 06:19:11;;;;;;;27.37;18.33;;;;;;;;;;5122379;27;20084;-47
2022/03/11 06:21:37;;;;;;;32.43;19.47;;;;;;;;;;5128956;27;20467;-49
2022/03/11 06:24:03;;;;;;;28.47;18.90;;;;;;;;;;5126873;27;20024;-47
2022/03/11 06:26:29;;;;;;;26.60;17.93;;;;;;;;;;5128411;27;20391;-48
2022/03/11 06:28:55;;;;;;;29.93;19.33;;;;;;;;;;5128313;27;20023;-48
2022/03/11 06:31:21;;;;;;;33.13;19.43;;;;;;;;;;5131319;27;20027;-47
2022/03/11 06:33:47;;;;;;;26.40;19.77;;;;;;;;;;5133404;27;20026;-47
2022/03/11 06:36:13;;;;;;;32.73;19.23;;;;;;;;;;5133011;27;20030;-49
2022/03/11 06:38:40;;;;;;;26.70;19.20;;;;;;;;;;5131580;27;20027;-47
2022/03/11 06:41:06;;;;;;;29.57;19.83;;;;;;;;;;5107054;27;20434;-48
2022/03/11 06:43:32;;;;;;;27.30;18.53;;;;;;;;;;5131099;27;20031;-48
2022/03/11 06:45:58;;;;;;;33.50;19.73;;;;;;;;;;5125532;27;20091;-53
2022/03/11 06:48:25;;;;;;;33.27;19.40;;;;;;;;;;5131921;27;20027;-49
2022/03/11 06:50:52;;;;;;;34.20;20.90;;;;;;;;;;5130333;27;20031;-48
2022/03/11 06:53:18;;;;;;;32.33;21.87;;;;;;;;;;5128516;27;20073;-50
2022/03/11 06:55:44;;;;;;;33.20;21.87;;;;;;;;;;5119048;27;20475;-49
2022/03/11 06:58:10;;;;;;;33.70;21.97;;;;;;;;;;5125454;27;20033;-49
2022/03/11 07:00:36;;;;;;;34.97;21.83;;;;;;;;;;5130388;27;20031;-47
2022/03/11 07:03:02;;;;;;;32.70;20.10;;;;;;;;;;5121242;27;20535;-47
2022/03/11 07:05:29;;;;;;;32.67;19.07;;;;;;;;;;5115709;27;20056;-48
2022/03/11 07:07:55;;;;;;;27.77;18.70;;;;;;;;;;5123611;27;20423;-48
2022/03/11 07:10:21;;;;;;;27.30;18.00;;;;;;;;;;5124885;27;20122;-48
2022/03/11 07:12:47;;;;;;;30.77;18.13;;;;;;;;;;5122238;27;20138;-47
2022/03/11 07:15:13;;;;;;;29.83;18.93;;;;;;;;;;5124030;27;20075;-47
2022/03/11 07:17:39;;;;;;;27.47;18.17;;;;;;;;;;5125813;27;20476;-48
2022/03/11 07:20:06;;;;;;;26.97;17.77;;;;;;;;;;5123763;27;20076;-46
2022/03/11 07:22:32;;;;;;;26.63;17.43;;;;;;;;;;5112345;28;20027;-47
2022/03/11 07:24:58;;;;;;;34.93;17.90;;;;;;;;;;5128008;27;20794;-47
2022/03/11 07:27:24;;;;;;;26.90;17.07;;;;;;;;;;5119650;27;20024;-49
2022/03/11 07:29:51;;;;;;;29.07;18.27;;;;;;;;;;5100494;28;20062;-48
2022/03/11 07:32:17;;;;;;;26.43;16.93;;;;;;;;;;5123316;28;20042;-48
2022/03/11 07:34:43;;;;;;;29.10;18.03;;;;;;;;;;5126249;28;20028;-47
2022/03/11 07:37:13;;;;;;;26.20;17.80;;;;;;;;;;5123425;28;20068;-48
2022/03/11 07:39:42;;;;;;;32.33;18.63;;;;;;;;;;5125669;28;20345;-50
2022/03/11 07:42:09;;;;;;;25.83;16.40;;;;;;;;;;5130865;28;20159;-50
2022/03/11 07:44:35;;;;;;;24.73;16.30;;;;;;;;;;5124690;28;20019;-50
2022/03/11 07:47:01;;;;;;;24.77;15.87;;;;;;;;;;5128221;28;20373;-50
2022/03/11 07:49:28;;;;;;;24.87;16.40;;;;;;;;;;5121630;28;20169;-48
2022/03/11 07:51:54;;;;;;;26.03;16.27;;;;;;;;;;5119924;28;20213;-48
2022/03/11 07:54:20;;;;;;;25.97;16.10;;;;;;;;;;5124277;28;20039;-49
2022/03/11 07:56:47;;;;;;;24.30;16.10;;;;;;;;;;5122215;28;20019;-50
2022/03/11 07:59:13;;;;;;;26.43;18.03;;;;;;;;;;5116381;28;20039;-48
2022/03/11 08:01:39;;;;;;;28.13;17.13;;;;;;;;;;5130962;27;20030;-48
2022/03/11 08:04:05;;;;;;;24.30;16.20;;;;;;;;;;5112245;27;20027;-50
2022/03/11 08:06:31;;;;;;;26.37;15.53;;;;;;;;;;5120732;27;20471;-49
2022/03/11 08:08:57;;;;;;;26.30;15.97;;;;;;;;;;5122696;27;20518;-49
2022/03/11 08:11:24;;;;;;;23.00;16.13;;;;;;;;;;5134781;27;20118;-46
2022/03/11 08:13:50;;;;;;;29.47;16.03;;;;;;;;;;5133418;27;20027;-47
2022/03/11 08:16:16;;;;;;;28.70;16.73;;;;;;;;;;5133620;27;20130;-47
2022/03/11 08:18:43;;;;;;;23.77;15.53;;;;;;;;;;5128128;27;20019;-47
2022/03/11 08:21:11;;;;;;;29.83;15.70;;;;;;;;;;5133001;27;20468;-51
2022/03/11 08:23:39;;;;;;;22.83;15.27;;;;;;;;;;5128527;27;20444;-50
2022/03/11 08:26:05;;;;;;;24.37;15.70;;;;;;;;;;5128803;27;20040;-50
2022/03/11 08:28:31;;;;;;;19.50;13.37;;;;;;;;;;5130407;27;20023;-48
2022/03/11 08:30:57;;;;;;;24.00;13.77;;;;;;;;;;5130555;27;20379;-48
2022/03/11 08:33:24;;;;;;;23.53;14.43;;;;;;;;;;5123943;27;20051;-50
2022/03/11 08:35:53;;;;;;;20.93;13.97;;;;;;;;;;5136640;27;20115;-49
2022/03/11 08:38:19;;;;;;;17.27;12.47;;;;;;;;;;5122413;27;20031;-49
2022/03/11 08:40:45;;;;;;;38.20;21.80;;;;;;;;;;5125707;27;20140;-51
2022/03/11 08:43:11;;;;;;;44.87;33.23;;;;;;;;;;5126978;27;20034;-50
2022/03/11 08:45:37;;;;;;;21.93;13.63;;;;;;;;;;5128635;27;20027;-48
2022/03/11 08:48:03;;;;;;;24.83;20.60;;;;;;;;;;5127985;27;20052;-48
2022/03/11 08:50:29;;;;;;;29.73;18.50;;;;;;;;;;5132708;27;20496;-51
2022/03/11 08:52:55;;;;;;;23.67;14.23;;;;;;;;;;5120684;27;20544;-49
2022/03/11 08:55:21;;;;;;;23.53;12.30;;;;;;;;;;5130169;27;20038;-49
2022/03/11 08:57:51;;;;;;;20.47;12.40;;;;;;;;;;5126413;27;20383;-50
2022/03/11 09:00:19;;;;;;;16.87;11.50;;;;;;;;;;5125560;27;20027;-50
2022/03/11 09:02:45;;;;;;;17.00;12.03;;;;;;;;;;5130034;27;20096;-49
2022/03/11 09:05:12;;;;;;;17.83;12.10;;;;;;;;;;5130314;27;20040;-53
2022/03/11 09:07:38;;;;;;;19.37;12.80;;;;;;;;;;5127875;27;20106;-50
2022/03/11 09:10:05;;;;;;;17.57;11.57;;;;;;;;;;5127347;27;20411;-54
2022/03/11 09:12:31;;;;;;;17.27;11.00;;;;;;;;;;5132887;27;20081;-50
2022/03/11 09:14:57;;;;;;;20.07;11.97;;;;;;;;;;5131661;27;20062;-48
2022/03/11 09:17:23;;;;;;;22.23;12.00;;;;;;;;;;5132827;27;20031;-48
2022/03/11 09:19:49;;;;;;;20.93;12.30;;;;;;;;;;5133819;27;20080;-50
2022/03/11 09:22:17;;;;;;;17.07;11.57;;;;;;;;;;5130116;27;20024;-50
2022/03/11 09:24:44;;;;;;;18.67;12.10;;;;;;;;;;5132696;27;20064;-48
2022/03/11 09:27:11;;;;;;;19.53;11.37;;;;;;;;;;5131939;27;20023;-49
2022/03/11 09:29:38;;;;;;;15.83;12.20;;;;;;;;;;5125600;27;20536;-52
2022/03/11 09:32:04;;;;;;;25.43;12.83;;;;;;;;;;5127361;27;20468;-50
2022/03/11 09:34:30;;;;;;;16.80;11.50;;;;;;;;;;5133620;27;20027;-48
2022/03/11 09:36:57;;;;;;;17.53;12.13;;;;;;;;;;5133486;27;20105;-48
2022/03/11 09:39:23;;;;;;;17.73;11.70;;;;;;;;;;5133286;27;20015;-50
2022/03/11 09:41:50;;;;;;;19.60;11.70;;;;;;;;;;5114190;27;20024;-47
2022/03/11 09:44:16;;;;;;;21.50;11.77;;;;;;;;;;5136789;27;20102;-50
2022/03/11 09:46:43;;;;;;;20.27;11.48;;;;;;;;;;5133512;27;20019;-49
2022/03/11 09:49:09;;;;;;;20.00;12.52;;;;;;;;;;5123605;27;20023;-53
2022/03/11 09:51:36;;;;;;;23.27;12.07;;;;;;;;;;5134299;27;20026;-49
2022/03/11 09:54:02;;;;;;;18.07;11.80;;;;;;;;;;5131910;27;20430;-49
2022/03/11 09:56:29;;;;;;;17.37;12.13;;;;;;;;;;5134193;27;20107;-48
2022/03/11 09:58:55;;;;;;;19.77;11.53;;;;;;;;;;5133038;27;20034;-51
2022/03/11 10:01:21;;;;;;;18.25;12.18;;;;;;;;;;5134336;27;20023;-49
2022/03/11 10:03:47;;;;;;;22.10;13.57;;;;;;;;;;5132984;27;20027;-49
2022/03/11 10:06:13;;;;;;;21.75;13.77;;;;;;;;;;5132955;27;20038;-49
2022/03/11 10:08:40;;;;;;;20.52;13.38;;;;;;;;;;5108684;28;20023;-49
2022/03/11 10:11:23;;;;;;;19.50;12.63;;;;;;;;;;5130892;27;20406;-48
2022/03/11 10:13:49;;;;;;;19.00;12.87;;;;;;;;;;5132864;27;20068;-52
2022/03/11 10:16:20;;;;;;;16.00;12.60;;;;;;;;;;5115385;27;20019;-49
2022/03/11 10:18:59;;;;;;;17.67;12.68;;;;;;;;;;5132621;27;20050;-48
2022/03/11 10:21:31;;;;;;;19.65;12.38;;;;;;;;;;5133131;27;20027;-52
2022/03/11 10:23:57;;;;;;;16.83;12.27;;;;;;;;;;5132390;27;20023;-51
2022/03/11 10:26:53;;;;;;;20.35;13.35;;;;;;;;;;5129599;27;20444;-49
2022/03/11 10:29:19;;;;;;;;;;;;;;;;;;5116296;27;20476;-50
2022/03/11 10:31:46;;;;;;;19.20;12.73;;;;;;;;;;5133547;27;19961;-48
2022/03/11 10:34:11;;;;;;;17.63;12.70;;;;;;;;;;5126119;27;20102;-47
2022/03/11 10:36:39;;;;;;;18.92;12.90;;;;;;;;;;5131163;27;20047;-48
2022/03/11 10:39:14;;;;;;;16.10;13.73;;;;;;;;;;5123954;27;20486;-49
2022/03/11 10:41:40;;;;;;;22.77;14.00;;;;;;;;;;5129267;27;20031;-51
2022/03/11 10:44:09;;;;;;;22.58;13.55;;;;;;;;;;5129985;27;20056;-48
2022/03/11 10:46:35;;;;;;;16.73;12.25;;;;;;;;;;5132389;27;20024;-49
2022/03/11 10:49:02;;;;;;;20.00;13.60;;;;;;;;;;5131157;27;20046;-51
2022/03/11 10:51:32;;;;;;;18.92;13.27;;;;;;;;;;5132828;27;20110;-51
2022/03/11 10:53:59;;;;;;;18.15;12.48;;;;;;;;;;5131608;27;20039;-51
2022/03/11 10:56:35;;;;;;;22.30;12.90;;;;;;;;;;5133369;27;20030;-50
2022/03/11 10:59:05;;;;;;;21.23;12.98;;;;;;;;;;5131834;27;20510;-50
2022/03/11 11:01:35;;;;;;;23.08;13.60;;;;;;;;;;5132184;27;20023;-51
2022/03/11 11:04:02;;;;;;;17.10;12.18;;;;;;;;;;5125115;27;20102;-51
2022/03/11 11:06:28;;;;;;;19.95;13.52;;;;;;;;;;5125338;27;20116;-47
2022/03/11 11:08:55;;;;;;;23.60;14.40;;;;;;;;;;5131899;27;20027;-48
2022/03/11 11:11:22;;;;;;;19.02;13.98;;;;;;;;;;5131520;27;20039;-50
2022/03/11 11:13:48;;;;;;;22.92;13.80;;;;;;;;;;5101588;28;20397;-48
2022/03/11 11:16:16;;;;;;;17.92;12.88;;;;;;;;;;5123070;27;20479;-55
2022/03/11 11:18:44;;;;;;;18.45;13.82;;;;;;;;;;5132682;27;20034;-51
2022/03/11 11:21:11;;;;;;;15.25;12.48;;;;;;;;;;5133117;27;20031;-49
2022/03/11 11:23:38;;;;;;;20.33;13.93;;;;;;;;;;5131826;27;20851;-49
2022/03/11 11:26:05;;;;;;;18.92;14.15;;;;;;;;;;5133373;27;20072;-49
2022/03/11 11:28:31;;;;;;;18.67;14.18;;;;;;;;;;5132097;27;20045;-51
2022/03/11 11:30:58;;;;;;;18.77;14.35;;;;;;;;;;5129319;27;20110;-52
2022/03/11 11:33:24;;;;;;;19.33;14.65;;;;;;;;;;5128657;28;20361;-49
2022/03/11 11:35:57;;;;;;;20.05;14.18;;;;;;;;;;5119281;28;20371;-52
2022/03/11 11:38:29;;;;;;;22.02;14.27;;;;;;;;;;5132755;28;20035;-49
2022/03/11 11:40:57;;;;;;;23.75;14.82;;;;;;;;;;5110510;28;20129;-51
2022/03/11 11:43:27;;;;;;;21.60;14.20;;;;;;;;;;5114533;28;20115;-49
2022/03/11 11:46:02;;;;;;;21.65;14.57;;;;;;;;;;5131914;28;20027;-48
2022/03/11 11:48:35;;;;;;;22.33;15.02;;;;;;;;;;5131039;28;20075;-51
2022/03/11 11:51:08;;;;;;;21.75;15.10;;;;;;;;;;5129159;28;20064;-50
2022/03/11 11:53:40;;;;;;;19.60;15.48;;;;;;;;;;5131519;28;20085;-50
2022/03/11 11:56:25;;;;;;;21.02;16.15;;;;;;;;;;5121597;28;20151;-51
2022/03/11 11:58:51;;;;;;;21.00;15.45;;;;;;;;;;5120594;28;20023;-51
2022/03/11 12:01:36;;;;;;;22.67;15.68;;;;;;;;;;5127707;28;20034;-51
2022/03/11 12:04:20;;;;;;;22.27;15.73;;;;;;;;;;5132475;28;20027;-53
2022/03/11 12:06:56;;;;;;;27.05;16.83;;;;;;;;;;5120152;28;20102;-49
2022/03/11 12:09:40;;;;;;;20.75;16.42;;;;;;;;;;5131131;28;20098;-51
2022/03/11 12:12:06;;;;;;;21.05;16.90;;;;;;;;;;5112425;28;20471;-48
2022/03/11 12:14:33;;;;;;;24.67;17.13;;;;;;;;;;5128146;28;20112;-51
2022/03/11 12:17:04;;;;;;;26.67;17.48;;;;;;;;;;5131384;28;20019;-48
2022/03/11 12:19:56;;;;;;;26.17;17.48;;;;;;;;;;5126654;28;20110;-50
2022/03/11 12:22:33;;;;;;;23.23;17.58;;;;;;;;;;5125161;28;20050;-51
2022/03/11 12:25:00;;;;;;;23.73;17.20;;;;;;;;;;5129727;28;20114;-48
2022/03/11 12:27:45;;;;;;;24.83;16.77;;;;;;;;;;5124292;28;20510;-53
2022/03/11 12:30:11;;;;;;;24.30;17.95;;;;;;;;;;5132436;28;20027;-54
2022/03/11 12:32:39;;;;;;;25.50;17.27;;;;;;;;;;5130176;28;20035;-53
2022/03/11 12:35:05;;;;;;;29.08;18.90;;;;;;;;;;5130618;28;20425;-52
2022/03/11 12:37:32;;;;;;;28.35;17.40;;;;;;;;;;5130807;28;20391;-49
2022/03/11 12:40:01;;;;;;;28.55;17.95;;;;;;;;;;5131838;28;20015;-51
2022/03/11 12:42:39;;;;;;;24.92;16.98;;;;;;;;;;5128301;27;20130;-50
2022/03/11 12:45:06;;;;;;;24.08;16.83;;;;;;;;;;5133598;27;20101;-49
2022/03/11 12:47:35;;;;;;;23.83;18.35;;;;;;;;;;5125239;27;20514;-50
2022/03/11 12:50:02;;;;;;;25.67;17.48;;;;;;;;;;5135845;27;20355;-51
2022/03/11 12:52:35;;;;;;;25.88;18.27;;;;;;;;;;5134564;27;20115;-49
2022/03/11 12:55:02;;;;;;;25.90;18.17;;;;;;;;;;5127731;27;20027;-49
2022/03/11 12:57:28;;;;;;;30.23;17.30;;;;;;;;;;5115799;27;20023;-48
2022/03/11 12:59:54;;;;;;;24.52;18.02;;;;;;;;;;5135733;27;20044;-51
2022/03/11 13:02:20;;;;;;;24.35;18.50;;;;;;;;;;5116504;27;20023;-49
2022/03/11 13:04:46;;;;;;;30.42;20.33;;;;;;;;;;5135676;27;20329;-48
2022/03/11 13:07:19;;;;;;;25.95;19.48;;;;;;;;;;5130004;27;20026;-49
2022/03/11 13:09:45;;;;;;;26.38;20.20;;;;;;;;;;5130097;27;20469;-49
2022/03/11 13:12:21;;;;;;;26.40;20.25;;;;;;;;;;5131841;27;20073;-48
2022/03/11 13:14:47;;;;;;;27.17;18.45;;;;;;;;;;5135107;27;20019;-48
2022/03/11 13:17:13;;;;;;;27.02;18.67;;;;;;;;;;5133636;27;20528;-51
2022/03/11 13:19:45;;;;;;;27.63;18.25;;;;;;;;;;5135192;27;20031;-49
2022/03/11 13:22:12;;;;;;;30.30;18.25;;;;;;;;;;5133945;27;20034;-51
2022/03/11 13:24:38;;;;;;;27.95;18.95;;;;;;;;;;5130124;27;20015;-47
2022/03/11 13:27:08;;;;;;;23.95;19.13;;;;;;;;;;5134411;27;20483;-51
2022/03/11 13:29:43;;;;;;;23.80;19.42;;;;;;;;;;5134433;27;20019;-49
2022/03/11 13:32:09;;;;;;;26.42;17.92;;;;;;;;;;5131007;27;20023;-56
2022/03/11 13:34:35;;;;;;;22.25;17.67;;;;;;;;;;5134808;27;20033;-50
2022/03/11 13:37:11;;;;;;;23.27;17.67;;;;;;;;;;5133683;27;20019;-47
2022/03/11 13:39:38;;;;;;;30.45;17.73;;;;;;;;;;5121615;27;20417;-52
2022/03/11 13:42:04;;;;;;;22.35;17.90;;;;;;;;;;5133387;27;20031;-52
2022/03/11 13:44:33;;;;;;;29.75;20.65;;;;;;;;;;5134545;27;20034;-49
2022/03/11 13:47:04;;;;;;;25.90;17.52;;;;;;;;;;5133469;27;20493;-51
2022/03/11 13:49:43;;;;;;;21.25;17.40;;;;;;;;;;5133617;27;20023;-48
2022/03/11 13:52:14;;;;;;;25.55;18.63;;;;;;;;;;5107669;28;20059;-47
2022/03/11 13:54:41;;;;;;;25.88;16.85;;;;;;;;;;5115748;27;20108;-49
2022/03/11 13:57:25;;;;;;;22.80;17.52;;;;;;;;;;5109516;27;20032;-52
2022/03/11 13:59:54;;;;;;;25.30;17.98;;;;;;;;;;5120743;27;20023;-52
2022/03/11 14:02:24;;;;;;;29.35;17.42;;;;;;;;;;5132941;27;20371;-50
2022/03/11 14:05:13;;;;;;;26.75;17.60;;;;;;;;;;5134523;27;20028;-53
2022/03/11 14:07:40;;;;;;;23.58;18.30;;;;;;;;;;5116310;27;20037;-51
2022/03/11 14:10:13;;;;;;;26.25;18.20;;;;;;;;;;5134476;27;20034;-52
2022/03/11 14:12:39;;;;;;;28.75;18.95;;;;;;;;;;5132581;27;20051;-48
2022/03/11 14:15:06;;;;;;;22.92;17.45;;;;;;;;;;5133980;27;20019;-49
2022/03/11 14:17:32;;;;;;;26.13;18.00;;;;;;;;;;5127695;27;20099;-50
2022/03/11 14:19:59;;;;;;;26.33;17.73;;;;;;;;;;5133964;27;20019;-48
2022/03/11 14:22:25;;;;;;;24.40;16.92;;;;;;;;;;5123540;27;20032;-49
2022/03/11 14:24:51;;;;;;;21.52;16.48;;;;;;;;;;5131630;27;20027;-53
2022/03/11 14:27:18;;;;;;;24.80;18.08;;;;;;;;;;5132412;27;20035;-51
2022/03/11 14:29:45;;;;;;;24.42;17.40;;;;;;;;;;5133814;27;20019;-49
2022/03/11 14:32:12;;;;;;;26.73;18.15;;;;;;;;;;5132429;27;20526;-49
2022/03/11 14:34:38;;;;;;;21.58;17.42;;;;;;;;;;5133649;27;20023;-50
2022/03/11 14:37:05;;;;;;;23.50;17.58;;;;;;;;;;5132301;27;20076;-54
2022/03/11 14:39:31;;;;;;;26.13;18.15;;;;;;;;;;5133271;27;20374;-52